Terminal Aerodrome Forecast
Issued by NWS

Home | Current Version | Previous Version | Text Only | Print | Product List | Glossary On
Versions: 1 2 3 4 5 6 7 8 9 10 11 12
000
FTUS44 KTSA 042300
TAFMLC
TAF
KMLC 042326Z 0500/0524 15011G17KT P6SM SCT060
     FM050100 15005KT P6SM SCT250
     FM050300 VRB03KT P6SM SCT250 WS020/17035KT
     FM051500 17011G20KT P6SM SCT100 BKN250
     FM051900 16011G20KT P6SM SCT060=

USA.gov is the U.S. government's official web portal to all federal, state and local government web resources and services.